createdAt,value
2018-07-25T00:00:19.925Z,101269.42
2018-07-25T00:02:48.373Z,101268.11
2018-07-25T00:05:17.717Z,101271.66
2018-07-25T00:07:46.597Z,101270.80
2018-07-25T00:10:15.046Z,101271.23
2018-07-25T00:12:43.867Z,101274.39
2018-07-25T00:15:12.639Z,101273.96
2018-07-25T00:17:41.295Z,101277.55
2018-07-25T00:20:10.538Z,101276.21
2018-07-25T00:22:39.289Z,101278.89
2018-07-25T00:25:08.387Z,101280.70
2018-07-25T00:27:37.422Z,101277.61
2018-07-25T00:30:06.204Z,101270.05
2018-07-25T00:32:34.920Z,101266.95
2018-07-25T00:35:03.794Z,101268.28
2018-07-25T00:37:32.257Z,101270.98
2018-07-25T00:40:00.986Z,101268.75
2018-07-25T00:42:29.929Z,101274.09
2018-07-25T00:44:58.405Z,101268.33
2018-07-25T00:47:26.898Z,101264.34
2018-07-25T00:49:55.589Z,101267.91
2018-07-25T00:52:24.049Z,101268.39
2018-07-25T00:54:52.509Z,101276.41
2018-07-25T00:57:21.334Z,101274.64
2018-07-25T00:59:49.884Z,101275.10
2018-07-25T01:02:18.361Z,101267.98
2018-07-25T01:04:47.697Z,101274.64
2018-07-25T01:07:16.162Z,101265.75
2018-07-25T01:09:44.943Z,101271.09
2018-07-25T01:12:13.844Z,101270.19
2018-07-25T01:14:42.605Z,101273.30
2018-07-25T01:17:11.264Z,101268.44
2018-07-25T01:19:40.214Z,101271.09
2018-07-25T01:22:08.950Z,101278.23
2018-07-25T01:24:38.397Z,101271.59
2018-07-25T01:27:07.358Z,101273.39
2018-07-25T01:29:36.244Z,101275.19
2018-07-25T01:32:04.933Z,101271.20
2018-07-25T01:34:33.408Z,101275.65
2018-07-25T01:37:01.924Z,101278.34
2018-07-25T01:39:30.961Z,101276.11
2018-07-25T01:41:59.826Z,101259.76
2018-07-25T01:44:28.389Z,101282.78
2018-07-25T01:46:57.681Z,101279.70
2018-07-25T01:49:27.106Z,101281.91
2018-07-25T01:51:55.915Z,101281.04
2018-07-25T01:54:24.616Z,101280.16
2018-07-25T01:56:53.465Z,101281.94
2018-07-25T01:59:22.317Z,101283.28
2018-07-25T02:01:50.756Z,101281.53
2018-07-25T02:04:19.829Z,101280.64
2018-07-25T02:06:48.421Z,101281.54
2018-07-25T02:09:16.853Z,101276.22
2018-07-25T02:11:45.985Z,101273.56
2018-07-25T02:14:14.747Z,101278.90
2018-07-25T02:16:43.459Z,101282.45
2018-07-25T02:19:12.009Z,101286.46
2018-07-25T02:21:40.436Z,101282.47
2018-07-25T02:24:09.506Z,101289.12
2018-07-25T02:26:38.325Z,101283.80
2018-07-25T02:29:07.266Z,101281.59
2018-07-25T02:31:36.130Z,101285.14
2018-07-25T02:34:09.825Z,101284.26
2018-07-25T02:36:38.899Z,101280.25
2018-07-25T02:39:09.937Z,101260.37
2018-07-25T02:41:38.638Z,101276.70
2018-07-25T02:44:07.397Z,101276.70
2018-07-25T02:46:36.240Z,101278.91
2018-07-25T02:49:04.733Z,101280.24
2018-07-25T02:51:33.861Z,101285.56
2018-07-25T02:54:03.245Z,101286.44
2018-07-25T02:56:32.513Z,101285.98
2018-07-25T02:59:01.655Z,101289.53
2018-07-25T03:01:30.227Z,101295.28
2018-07-25T03:03:58.809Z,101285.50
2018-07-25T03:06:27.908Z,101292.59
2018-07-25T03:08:56.502Z,101291.27
2018-07-25T03:11:25.249Z,101297.02
2018-07-25T03:13:54.209Z,101301.45
2018-07-25T03:16:22.695Z,101298.34
2018-07-25T03:18:51.155Z,101296.11
2018-07-25T03:21:19.996Z,101293.02
2018-07-25T03:23:48.665Z,101294.78
2018-07-25T03:26:17.168Z,101294.33
2018-07-25T03:28:46.010Z,101296.53
2018-07-25T03:31:14.859Z,101295.64
2018-07-25T03:33:43.321Z,101297.41
2018-07-25T03:36:12.088Z,101299.61
2018-07-25T03:38:40.542Z,101300.94
2018-07-25T03:41:09.010Z,101306.70
2018-07-25T03:43:38.010Z,101308.46
2018-07-25T03:46:06.846Z,101306.66
2018-07-25T03:48:35.326Z,101297.75
2018-07-25T03:51:04.052Z,101306.16
2018-07-25T03:53:32.890Z,101304.36
2018-07-25T03:56:01.405Z,101297.68
2018-07-25T03:58:30.208Z,101298.09
2018-07-25T04:00:58.665Z,101299.42
2018-07-25T04:03:28.025Z,101303.41
2018-07-25T04:05:57.153Z,101293.59
2018-07-25T04:08:25.923Z,101302.43
2018-07-25T04:10:54.740Z,101178.56
2018-07-25T04:13:23.449Z,101298.80
2018-07-25T04:15:52.297Z,101302.30
2018-07-25T04:18:21.085Z,101303.59
2018-07-25T04:20:49.909Z,101304.00
2018-07-25T04:23:18.361Z,101305.30
2018-07-25T04:25:47.044Z,101303.02
2018-07-25T04:28:15.965Z,101308.75
2018-07-25T04:30:44.409Z,101307.36
2018-07-25T04:33:13.209Z,101312.22
2018-07-25T04:35:42.248Z,101318.39
2018-07-25T04:38:10.669Z,101312.55
2018-07-25T04:40:39.149Z,101308.95
2018-07-25T04:43:08.573Z,101317.78
2018-07-25T04:45:37.021Z,101311.03
2018-07-25T04:48:05.967Z,101315.39
2018-07-25T04:50:34.789Z,101314.45
2018-07-25T04:53:03.481Z,101319.28
2018-07-25T04:55:32.139Z,101319.20
2018-07-25T04:58:00.856Z,101320.91
2018-07-25T05:00:29.772Z,101324.42
2018-07-25T05:02:58.366Z,101322.11
2018-07-25T05:05:27.093Z,101318.52
2018-07-25T05:07:56.497Z,101319.35
2018-07-25T05:10:25.239Z,101313.06
2018-07-25T05:12:54.052Z,101323.22
2018-07-25T05:15:22.505Z,101314.67
2018-07-25T05:17:51.336Z,101316.80
2018-07-25T05:20:20.145Z,101326.95
2018-07-25T05:22:48.587Z,101323.75
2018-07-25T05:25:17.333Z,101323.67
2018-07-25T05:27:46.161Z,101324.08
2018-07-25T05:30:14.763Z,101322.19
2018-07-25T05:32:43.253Z,101320.73
2018-07-25T05:35:12.487Z,101323.75
2018-07-25T05:37:40.933Z,101325.84
2018-07-25T05:40:09.833Z,101328.44
2018-07-25T05:42:39.296Z,101327.47
2018-07-25T05:45:08.034Z,101333.66
2018-07-25T05:47:36.530Z,101334.44
2018-07-25T05:50:06.634Z,101331.16
2018-07-25T05:52:35.331Z,101335.09
2018-07-25T05:55:04.554Z,101326.06
2018-07-25T05:57:33.294Z,101334.05
2018-07-25T06:00:02.401Z,101331.25
2018-07-25T06:02:31.337Z,101331.09
2018-07-25T06:05:00.189Z,101334.94
2018-07-25T06:07:28.645Z,101332.59
2018-07-25T06:09:57.369Z,101340.14
2018-07-25T06:12:27.676Z,101338.20
2018-07-25T06:14:56.137Z,101337.25
2018-07-25T06:17:24.985Z,101342.94
2018-07-25T06:19:53.787Z,101338.30
2018-07-25T06:22:22.357Z,101331.47
2018-07-25T06:24:51.045Z,101336.60
2018-07-25T06:27:19.770Z,101334.63
2018-07-25T06:29:48.236Z,101335.34
2018-07-25T06:32:16.914Z,101341.45
2018-07-25T06:34:45.470Z,101347.53
2018-07-25T06:37:14.229Z,101346.05
2018-07-25T06:39:42.833Z,101340.14
2018-07-25T06:42:11.358Z,101338.66
2018-07-25T06:44:39.921Z,101338.05
2018-07-25T06:47:08.397Z,101338.86
2018-07-25T06:49:36.867Z,101336.56
2018-07-25T06:52:06.096Z,101339.48
2018-07-25T06:54:34.601Z,101339.67
2018-07-25T06:57:03.059Z,101346.99
2018-07-25T06:59:31.681Z,101340.47
2018-07-25T07:02:00.290Z,101334.84
2018-07-25T07:04:29.292Z,101332.37
2018-07-25T07:06:58.094Z,101342.88
2018-07-25T07:09:27.061Z,101346.27
2018-07-25T07:11:56.502Z,101343.63
2018-07-25T07:14:25.165Z,101346.98
2018-07-25T07:16:54.037Z,101349.45
2018-07-25T07:19:22.941Z,101340.23
2018-07-25T07:21:51.395Z,101335.42
2018-07-25T07:24:20.078Z,101334.50
2018-07-25T07:26:48.934Z,101335.41
2018-07-25T07:29:17.429Z,101346.73
2018-07-25T07:31:46.391Z,101336.76
2018-07-25T07:34:14.910Z,101341.80
2018-07-25T07:36:43.405Z,101339.39
2018-07-25T07:39:13.853Z,101340.60
2018-07-25T07:41:42.973Z,101334.62
2018-07-25T07:44:11.611Z,101338.72
2018-07-25T07:46:40.185Z,101340.06
2018-07-25T07:49:09.236Z,101348.59
2018-07-25T07:51:38.083Z,101338.24
2018-07-25T07:54:06.710Z,101335.34
2018-07-25T07:56:35.148Z,101339.19
2018-07-25T07:59:03.809Z,101340.38
2018-07-25T08:01:32.402Z,101336.06
2018-07-25T08:04:01.337Z,101332.33
2018-07-25T08:06:29.973Z,101320.05
2018-07-25T08:08:58.838Z,101339.69
2018-07-25T08:11:27.333Z,101336.24
2018-07-25T08:13:55.769Z,101336.08
2018-07-25T08:16:24.606Z,101338.02
2018-07-25T08:18:53.140Z,101332.20
2018-07-25T08:21:21.561Z,101332.81
2018-07-25T08:23:50.061Z,101329.45
2018-07-25T08:26:18.937Z,101335.70
2018-07-25T08:28:47.368Z,101335.73
2018-07-25T08:31:16.106Z,101336.17
2018-07-25T08:33:44.709Z,101333.41
2018-07-25T08:36:13.160Z,101329.20
2018-07-25T08:38:43.066Z,101329.22
2018-07-25T08:41:11.993Z,101331.19
2018-07-25T08:43:41.986Z,101335.63
2018-07-25T08:46:11.665Z,101327.86
2018-07-25T08:48:41.122Z,101334.72
2018-07-25T08:51:09.705Z,101332.83
2018-07-25T08:53:38.837Z,101329.02
2018-07-25T08:56:07.765Z,101317.33
2018-07-25T08:58:36.406Z,101318.13
2018-07-25T09:01:05.000Z,101325.56
2018-07-25T09:03:33.602Z,101324.78
2018-07-25T09:06:02.644Z,101323.55
2018-07-25T09:08:31.765Z,101324.81
2018-07-25T09:11:00.458Z,101319.00
2018-07-25T09:13:29.089Z,101321.25
2018-07-25T09:15:58.078Z,101329.12
2018-07-25T09:18:26.960Z,101323.77
2018-07-25T09:20:55.585Z,101327.59
2018-07-25T09:23:24.265Z,101325.63
2018-07-25T09:25:53.185Z,101317.96
2018-07-25T09:28:21.946Z,101323.75
2018-07-25T09:30:50.725Z,101321.14
2018-07-25T09:33:19.393Z,101318.88
2018-07-25T09:35:47.848Z,101324.77
2018-07-25T09:38:16.347Z,101313.50
2018-07-25T09:40:45.399Z,101309.98
2018-07-25T09:43:14.029Z,101315.42
2018-07-25T09:45:42.549Z,101312.67
2018-07-25T09:48:11.353Z,101309.17
2018-07-25T09:50:40.469Z,101306.47
2018-07-25T09:53:09.096Z,101311.94
2018-07-25T09:55:37.694Z,101305.64
2018-07-25T09:58:06.481Z,101305.70
2018-07-25T10:00:40.540Z,101296.93
2018-07-25T10:03:09.382Z,101301.30
2018-07-25T10:05:37.949Z,101305.81
2018-07-25T10:08:06.823Z,101305.84
2018-07-25T10:10:35.433Z,101297.49
2018-07-25T10:13:04.729Z,101297.38
2018-07-25T10:15:33.377Z,101308.80
2018-07-25T10:18:02.114Z,101302.50
2018-07-25T10:20:30.717Z,101300.92
2018-07-25T10:22:59.225Z,101298.47
2018-07-25T10:25:28.067Z,101288.10
2018-07-25T10:27:57.515Z,101292.09
2018-07-25T10:30:26.009Z,101296.51
2018-07-25T10:32:54.725Z,101289.98
2018-07-25T10:35:23.593Z,101287.86
2018-07-25T10:37:52.077Z,101292.90
2018-07-25T10:40:20.894Z,101289.52
2018-07-25T10:42:49.453Z,101307.44
2018-07-25T10:45:18.013Z,101291.48
2018-07-25T10:47:46.973Z,101284.53
2018-07-25T10:50:15.631Z,101289.67
2018-07-25T10:52:44.293Z,101289.98
2018-07-25T10:55:13.524Z,101297.57
2018-07-25T10:57:41.991Z,101289.11
2018-07-25T11:00:10.529Z,101293.05
2018-07-25T11:02:39.392Z,101290.70
2018-07-25T11:05:08.198Z,101283.66
2018-07-25T11:07:36.795Z,101286.98
2018-07-25T11:10:05.950Z,101286.68
2018-07-25T11:12:34.729Z,101282.19
2018-07-25T11:15:03.253Z,101290.42
2018-07-25T11:17:32.019Z,101284.20
2018-07-25T11:20:00.685Z,101283.89
2018-07-25T11:22:29.513Z,101291.16
2018-07-25T11:24:58.358Z,101282.37
2018-07-25T11:27:27.025Z,101282.37
2018-07-25T11:29:55.680Z,101283.63
2018-07-25T11:32:24.458Z,101280.30
2018-07-25T11:34:53.093Z,101293.86
2018-07-25T11:37:21.973Z,101285.84
2018-07-25T11:39:51.398Z,101281.20
2018-07-25T11:42:19.856Z,101274.53
2018-07-25T11:44:48.348Z,101272.38
2018-07-25T11:47:17.446Z,101273.63
2018-07-25T11:49:45.905Z,101270.67
2018-07-25T11:52:14.365Z,101275.58
2018-07-25T11:54:43.505Z,101276.30
2018-07-25T11:57:12.039Z,101276.75
2018-07-25T11:59:40.519Z,101279.48
2018-07-25T12:02:09.039Z,101277.56
2018-07-25T12:04:37.793Z,101276.06
2018-07-25T12:07:06.345Z,101264.11
2018-07-25T12:09:35.005Z,101270.87
2018-07-25T12:12:03.682Z,101278.14
2018-07-25T12:14:32.261Z,101259.88
2018-07-25T12:17:01.121Z,101269.20
2018-07-25T12:19:29.709Z,101272.94
2018-07-25T12:21:58.588Z,101260.16
2018-07-25T12:24:27.136Z,101260.73
2018-07-25T12:26:55.677Z,101265.42
2018-07-25T12:29:25.078Z,101266.41
2018-07-25T12:31:53.700Z,101264.66
2018-07-25T12:34:22.196Z,101272.45
2018-07-25T12:36:51.055Z,101254.94
2018-07-25T12:39:19.645Z,101262.08
2018-07-25T12:41:48.110Z,101264.73
2018-07-25T12:44:17.085Z,101267.69
2018-07-25T12:46:45.905Z,101260.34
2018-07-25T12:49:14.397Z,101268.98
2018-07-25T12:51:43.137Z,101261.47
2018-07-25T12:54:11.833Z,101259.52
2018-07-25T12:56:40.373Z,101257.83
2018-07-25T12:59:08.997Z,101254.14
2018-07-25T13:01:37.534Z,101246.10
2018-07-25T13:04:06.291Z,101248.20
2018-07-25T13:06:35.236Z,101247.33
2018-07-25T13:09:05.104Z,101229.19
2018-07-25T13:11:33.550Z,101245.17
2018-07-25T13:14:02.102Z,101256.41
2018-07-25T13:16:31.113Z,101255.44
2018-07-25T13:18:59.578Z,101240.59
2018-07-25T13:21:28.677Z,101242.80
2018-07-25T13:23:58.425Z,101234.86
2018-07-25T13:26:31.326Z,101231.38
2018-07-25T13:29:02.742Z,101232.78
2018-07-25T13:31:31.725Z,101237.44
2018-07-25T13:34:00.193Z,101237.39
2018-07-25T13:36:28.797Z,101241.44
2018-07-25T13:38:57.954Z,101233.53
2018-07-25T13:41:26.430Z,101237.27
2018-07-25T13:43:54.923Z,101238.27
2018-07-25T13:46:24.451Z,101240.28
2018-07-25T13:48:53.293Z,101226.42
2018-07-25T13:51:21.830Z,101227.67
2018-07-25T13:53:50.566Z,101227.78
2018-07-25T13:56:19.385Z,101231.91
2018-07-25T13:58:48.099Z,101226.10
2018-07-25T14:01:17.282Z,101224.85
2018-07-25T14:03:46.090Z,101227.86
2018-07-25T14:06:14.653Z,101221.41
2018-07-25T14:08:43.709Z,101221.23
2018-07-25T14:11:12.649Z,101219.38
2018-07-25T14:13:41.106Z,101219.05
2018-07-25T14:16:10.061Z,101212.75
2018-07-25T14:18:38.821Z,101213.98
2018-07-25T14:21:07.342Z,101211.20
2018-07-25T14:23:36.804Z,101214.91
2018-07-25T14:26:05.282Z,101208.89
2018-07-25T14:28:33.959Z,101212.64
2018-07-25T14:31:03.006Z,101220.84
2018-07-25T14:33:31.485Z,101213.64
2018-07-25T14:35:59.965Z,101212.34
2018-07-25T14:38:28.629Z,101206.02
2018-07-25T14:40:58.373Z,101209.52
2018-07-25T14:43:27.022Z,101205.88
2018-07-25T14:45:55.521Z,101206.87
2018-07-25T14:48:24.495Z,101207.41
2018-07-25T14:50:52.959Z,101209.27
2018-07-25T14:53:21.771Z,101214.45
2018-07-25T14:55:50.626Z,101209.06
2018-07-25T14:58:19.582Z,101221.25
2018-07-25T15:00:48.546Z,101217.56
2018-07-25T15:03:17.066Z,101222.80
2018-07-25T15:05:45.606Z,101218.97
2018-07-25T15:08:14.452Z,101219.59
2018-07-25T15:10:42.944Z,101224.15
2018-07-25T15:13:12.066Z,101221.92
2018-07-25T15:15:41.085Z,101218.23
2018-07-25T15:18:09.585Z,101216.70
2018-07-25T15:20:38.090Z,101226.42
2018-07-25T15:23:06.915Z,101219.70
2018-07-25T15:25:35.485Z,101231.28
2018-07-25T15:28:04.006Z,101221.88
2018-07-25T15:30:32.977Z,101224.30
2018-07-25T15:33:01.487Z,101228.23
2018-07-25T15:35:29.953Z,101220.83
2018-07-25T15:37:58.501Z,101240.03
2018-07-25T15:40:26.961Z,101216.86
2018-07-25T15:42:55.437Z,101222.47
2018-07-25T15:45:24.314Z,101220.03
2018-07-25T15:47:52.765Z,101226.05
2018-07-25T15:50:21.653Z,101242.14
2018-07-25T15:52:50.316Z,101224.97
2018-07-25T15:55:18.981Z,101228.62
2018-07-25T15:57:47.549Z,101230.66
2018-07-25T16:00:16.078Z,101245.08
2018-07-25T16:02:51.765Z,101240.72
2018-07-25T16:05:20.713Z,101240.65
2018-07-25T16:07:49.189Z,101239.20
2018-07-25T16:10:18.080Z,101248.72
2018-07-25T16:12:46.889Z,101242.05
2018-07-25T16:15:15.369Z,101243.95
2018-07-25T16:17:44.265Z,101234.62
2018-07-25T16:20:12.796Z,101254.37
2018-07-25T16:22:41.661Z,101244.37
2018-07-25T16:25:10.193Z,101243.97
2018-07-25T16:27:38.749Z,101236.68
2018-07-25T16:30:07.449Z,101251.11
2018-07-25T16:32:35.979Z,101253.48
2018-07-25T16:35:05.361Z,101244.70
2018-07-25T16:37:34.082Z,101242.68
2018-07-25T16:40:03.041Z,101248.11
2018-07-25T16:42:32.311Z,101248.64
2018-07-25T16:45:00.811Z,101261.14
2018-07-25T16:47:29.386Z,101257.86
2018-07-25T16:49:59.313Z,101250.63
2018-07-25T16:52:27.781Z,101258.91
2018-07-25T16:54:57.309Z,101260.98
2018-07-25T16:57:26.323Z,101263.94
2018-07-25T16:59:54.783Z,101258.97
2018-07-25T17:02:23.359Z,101266.12
2018-07-25T17:04:52.146Z,101271.91
2018-07-25T17:07:20.684Z,101269.17
2018-07-25T17:09:49.151Z,101268.66
2018-07-25T17:12:17.672Z,101276.98
2018-07-25T17:14:46.233Z,101280.80
2018-07-25T17:17:14.717Z,101269.39
2018-07-25T17:19:43.225Z,101271.41
2018-07-25T17:22:11.684Z,101271.12
2018-07-25T17:24:40.122Z,101268.64
2018-07-25T17:27:09.193Z,101268.50
2018-07-25T17:29:37.722Z,101272.91
2018-07-25T17:32:06.681Z,101272.55
2018-07-25T17:34:35.153Z,101274.91
2018-07-25T17:37:03.685Z,101276.14
2018-07-25T17:39:32.161Z,101281.20
2018-07-25T17:42:01.078Z,101275.41
2018-07-25T17:44:29.821Z,101283.15
2018-07-25T17:46:58.463Z,101277.47
2018-07-25T17:49:27.661Z,101279.83
2018-07-25T17:51:56.330Z,101277.72
2018-07-25T17:54:24.953Z,101288.52
2018-07-25T17:56:54.378Z,101293.28
2018-07-25T17:59:22.821Z,101289.55
2018-07-25T18:01:51.293Z,101296.58
2018-07-25T18:04:19.989Z,101297.33
2018-07-25T18:06:48.613Z,101292.50
2018-07-25T18:09:17.114Z,101290.78
2018-07-25T18:11:46.220Z,101300.38
2018-07-25T18:14:15.784Z,101299.08
2018-07-25T18:16:45.278Z,101300.12
2018-07-25T18:19:15.205Z,101298.19
2018-07-25T18:21:44.079Z,101306.06
2018-07-25T18:24:13.011Z,101305.40
2018-07-25T18:26:41.664Z,101301.05
2018-07-25T18:29:10.779Z,101311.09
2018-07-25T18:31:39.535Z,101310.48
2018-07-25T18:34:08.386Z,101311.20
2018-07-25T18:36:37.091Z,101310.98
2018-07-25T18:39:08.286Z,101324.75
2018-07-25T18:41:36.862Z,101309.98
2018-07-25T18:44:05.350Z,101325.95
2018-07-25T18:46:34.406Z,101317.61
2018-07-25T18:49:02.930Z,101320.53
2018-07-25T18:51:31.428Z,101317.98
2018-07-25T18:54:00.981Z,101319.19
2018-07-25T18:56:30.278Z,101325.13
2018-07-25T18:58:59.183Z,101325.77
2018-07-25T19:01:27.990Z,101331.30
2018-07-25T19:03:57.109Z,101339.91
2018-07-25T19:06:26.307Z,101337.45
2018-07-25T19:08:54.937Z,101328.84
2018-07-25T19:11:24.100Z,101333.05
2018-07-25T19:14:01.997Z,101341.23
2018-07-25T19:16:30.584Z,101342.28
2018-07-25T19:18:59.193Z,101340.14
2018-07-25T19:21:28.531Z,101335.44
2018-07-25T19:23:57.001Z,101335.14
2018-07-25T19:26:26.227Z,101335.73
2018-07-25T19:28:55.178Z,101343.45
2018-07-25T19:31:24.312Z,101346.17
2018-07-25T19:33:53.017Z,101356.58
2018-07-25T19:36:21.878Z,101348.26
2018-07-25T19:38:50.474Z,101355.55
2018-07-25T19:41:19.164Z,101363.83
2018-07-25T19:43:48.021Z,101360.84
2018-07-25T19:46:17.135Z,101360.53
2018-07-25T19:48:45.593Z,101355.23
2018-07-25T19:51:14.079Z,101362.59
2018-07-25T19:53:43.100Z,101355.11
2018-07-25T19:56:11.932Z,101332.31
2018-07-25T19:58:40.512Z,101361.19
2018-07-25T20:01:09.759Z,101363.94
2018-07-25T20:03:39.898Z,101365.31
2018-07-25T20:06:08.397Z,101374.35
2018-07-25T20:08:37.174Z,101368.70
2018-07-25T20:11:06.250Z,101229.41
2018-07-25T20:13:34.822Z,101374.62
2018-07-25T20:16:03.717Z,101372.99
2018-07-25T20:18:32.197Z,101373.98
2018-07-25T20:21:01.583Z,101377.22
2018-07-25T20:23:30.173Z,101368.81
2018-07-25T20:26:02.062Z,101371.49
2018-07-25T20:28:34.153Z,101377.05
2018-07-25T20:31:03.230Z,101379.91
2018-07-25T20:33:33.897Z,101372.03
2018-07-25T20:36:02.991Z,101375.98
2018-07-25T20:38:31.970Z,101377.30
2018-07-25T20:41:00.454Z,101376.02
2018-07-25T20:43:29.237Z,101383.72
2018-07-25T20:45:58.125Z,101382.90
2018-07-25T20:48:26.606Z,101388.26
2018-07-25T20:50:55.367Z,101385.76
2018-07-25T20:53:24.165Z,101390.32
2018-07-25T20:55:52.604Z,101389.15
2018-07-25T20:58:21.083Z,101388.81
2018-07-25T21:00:50.105Z,101390.20
2018-07-25T21:03:18.568Z,101387.09
2018-07-25T21:05:47.134Z,101386.23
2018-07-25T21:08:16.601Z,101392.08
2018-07-25T21:10:45.463Z,101396.06
2018-07-25T21:13:14.089Z,101398.45
2018-07-25T21:15:42.738Z,101399.39
2018-07-25T21:18:11.542Z,101401.27
2018-07-25T21:20:39.976Z,101407.13
2018-07-25T21:23:08.806Z,101404.05
2018-07-25T21:25:37.483Z,101406.27
2018-07-25T21:28:06.273Z,101410.31
2018-07-25T21:30:35.058Z,101411.22
2018-07-25T21:33:03.502Z,101413.47
2018-07-25T21:35:32.222Z,101412.94
2018-07-25T21:38:01.022Z,101413.95
2018-07-25T21:40:29.610Z,101415.42
2018-07-25T21:42:58.115Z,101418.16
2018-07-25T21:45:27.264Z,101420.42
2018-07-25T21:47:56.001Z,101426.66
2018-07-25T21:50:24.513Z,101421.84
2018-07-25T21:52:53.625Z,101420.94
2018-07-25T21:55:22.725Z,101424.97
2018-07-25T21:57:51.193Z,101428.10
2018-07-25T22:00:20.361Z,101429.08
2018-07-25T22:02:48.994Z,101425.02
2018-07-25T22:05:17.468Z,101425.47
2018-07-25T22:07:46.574Z,101428.61
2018-07-25T22:10:15.401Z,101432.28
2018-07-25T22:12:43.834Z,101425.25
2018-07-25T22:15:13.102Z,101423.50
2018-07-25T22:17:41.740Z,101439.55
2018-07-25T22:20:12.254Z,101439.15
2018-07-25T22:22:41.205Z,101435.59
2018-07-25T22:25:10.710Z,101445.42
2018-07-25T22:27:40.325Z,101445.45
2018-07-25T22:30:09.182Z,101453.09
2018-07-25T22:32:37.837Z,101443.84
2018-07-25T22:35:06.700Z,101449.64
2018-07-25T22:37:35.682Z,101445.61
2018-07-25T22:40:04.631Z,101445.12
2018-07-25T22:42:33.105Z,101452.30
2018-07-25T22:45:02.345Z,101446.60
2018-07-25T22:47:30.773Z,101447.13
2018-07-25T22:49:59.265Z,101448.92
2018-07-25T22:52:28.645Z,101448.91
2018-07-25T22:54:57.502Z,101437.80
2018-07-25T22:57:25.957Z,101446.29
2018-07-25T22:59:54.779Z,101445.81
2018-07-25T23:02:23.855Z,101446.29
2018-07-25T23:04:52.365Z,101451.16
2018-07-25T23:07:21.132Z,101447.19
2018-07-25T23:09:49.941Z,101445.42
2018-07-25T23:12:18.489Z,101450.32
2018-07-25T23:14:47.513Z,101440.09
2018-07-25T23:17:16.640Z,101444.13
2018-07-25T23:19:45.139Z,101442.77
2018-07-25T23:22:13.976Z,101441.41
2018-07-25T23:24:42.691Z,101442.77
2018-07-25T23:27:11.703Z,101443.71
2018-07-25T23:29:40.152Z,101437.97
2018-07-25T23:32:09.626Z,101432.66
2018-07-25T23:34:38.433Z,101440.68
2018-07-25T23:39:34.409Z,101443.34
2018-07-25T23:42:03.601Z,101445.56
2018-07-25T23:44:32.636Z,101449.12
2018-07-25T23:47:01.079Z,101444.28
2018-07-25T23:49:29.725Z,101443.39
2018-07-25T23:51:58.998Z,101439.83
2018-07-25T23:54:27.713Z,101442.12
2018-07-25T23:56:56.667Z,101449.70
2018-07-25T23:59:25.484Z,101452.80
